sensor_id;sensor_type;location;lat;lon;timestamp;temperature;humidity
2327;DHT22;1174;51.588;7.328;2023-04-07T00:01:14;9.50;99.90
2327;DHT22;1174;51.588;7.328;2023-04-07T00:03:42;9.50;99.90
2327;DHT22;1174;51.588;7.328;2023-04-07T00:06:09;9.40;99.90
2327;DHT22;1174;51.588;7.328;2023-04-07T00:08:36;9.40;99.90
2327;DHT22;1174;51.588;7.328;2023-04-07T00:11:05;9.50;99.90
2327;DHT22;1174;51.588;7.328;2023-04-07T00:13:34;9.40;99.90
2327;DHT22;1174;51.588;7.328;2023-04-07T00:16:01;9.50;99.90
2327;DHT22;1174;51.588;7.328;2023-04-07T00:18:29;9.50;99.90
2327;DHT22;1174;51.588;7.328;2023-04-07T00:20:57;9.40;99.90
2327;DHT22;1174;51.588;7.328;2023-04-07T00:23:26;9.40;99.90
2327;DHT22;1174;51.588;7.328;2023-04-07T00:25:53;9.50;99.90
2327;DHT22;1174;51.588;7.328;2023-04-07T00:28:22;9.40;99.90
2327;DHT22;1174;51.588;7.328;2023-04-07T00:30:51;9.30;99.90
2327;DHT22;1174;51.588;7.328;2023-04-07T00:33:19;9.30;99.90
2327;DHT22;1174;51.588;7.328;2023-04-07T00:35:47;9.30;99.90
2327;DHT22;1174;51.588;7.328;2023-04-07T00:38:14;9.40;99.90
2327;DHT22;1174;51.588;7.328;2023-04-07T00:40:40;9.40;99.90
2327;DHT22;1174;51.588;7.328;2023-04-07T00:43:08;9.50;99.90
2327;DHT22;1174;51.588;7.328;2023-04-07T00:45:37;9.40;99.90
2327;DHT22;1174;51.588;7.328;2023-04-07T00:48:04;9.30;99.90
2327;DHT22;1174;51.588;7.328;2023-04-07T00:50:31;9.40;99.90
2327;DHT22;1174;51.588;7.328;2023-04-07T00:52:58;9.40;99.90
2327;DHT22;1174;51.588;7.328;2023-04-07T00:55:27;9.50;99.90
2327;DHT22;1174;51.588;7.328;2023-04-07T00:57:56;9.50;99.90
2327;DHT22;1174;51.588;7.328;2023-04-07T01:00:24;9.60;99.90
2327;DHT22;1174;51.588;7.328;2023-04-07T01:02:57;9.70;99.90
2327;DHT22;1174;51.588;7.328;2023-04-07T01:05:33;9.70;99.90
2327;DHT22;1174;51.588;7.328;2023-04-07T01:08:11;9.80;99.90
2327;DHT22;1174;51.588;7.328;2023-04-07T01:10:45;9.80;99.90
2327;DHT22;1174;51.588;7.328;2023-04-07T01:13:22;9.80;99.90
2327;DHT22;1174;51.588;7.328;2023-04-07T01:15:54;9.80;99.90
2327;DHT22;1174;51.588;7.328;2023-04-07T01:18:25;9.70;99.90
2327;DHT22;1174;51.588;7.328;2023-04-07T01:20:58;9.70;99.90
2327;DHT22;1174;51.588;7.328;2023-04-07T01:23:38;9.80;99.90
2327;DHT22;1174;51.588;7.328;2023-04-07T01:26:17;9.80;99.90
2327;DHT22;1174;51.588;7.328;2023-04-07T01:31:49;9.80;99.90
2327;DHT22;1174;51.588;7.328;2023-04-07T01:34:17;9.80;99.90
2327;DHT22;1174;51.588;7.328;2023-04-07T01:36:46;9.90;99.90
2327;DHT22;1174;51.588;7.328;2023-04-07T01:39:14;9.90;99.90
2327;DHT22;1174;51.588;7.328;2023-04-07T01:41:42;9.90;99.90
2327;DHT22;1174;51.588;7.328;2023-04-07T01:44:10;9.90;99.90
2327;DHT22;1174;51.588;7.328;2023-04-07T01:46:38;10.00;99.90
2327;DHT22;1174;51.588;7.328;2023-04-07T01:49:07;10.00;99.90
2327;DHT22;1174;51.588;7.328;2023-04-07T01:51:34;10.00;99.90
2327;DHT22;1174;51.588;7.328;2023-04-07T01:54:03;10.00;99.90
2327;DHT22;1174;51.588;7.328;2023-04-07T01:56:33;10.10;99.90
2327;DHT22;1174;51.588;7.328;2023-04-07T01:59:01;10.10;99.90
2327;DHT22;1174;51.588;7.328;2023-04-07T02:01:29;10.10;99.90
2327;DHT22;1174;51.588;7.328;2023-04-07T02:04:03;10.10;99.90
2327;DHT22;1174;51.588;7.328;2023-04-07T02:06:41;10.20;99.90
2327;DHT22;1174;51.588;7.328;2023-04-07T02:09:11;10.20;99.90
2327;DHT22;1174;51.588;7.328;2023-04-07T02:11:39;10.10;99.90
2327;DHT22;1174;51.588;7.328;2023-04-07T02:14:11;10.10;99.90
2327;DHT22;1174;51.588;7.328;2023-04-07T02:16:40;10.10;99.90
2327;DHT22;1174;51.588;7.328;2023-04-07T02:19:08;10.10;99.90
2327;DHT22;1174;51.588;7.328;2023-04-07T02:21:39;10.10;99.90
2327;DHT22;1174;51.588;7.328;2023-04-07T02:24:07;10.00;99.90
2327;DHT22;1174;51.588;7.328;2023-04-07T02:26:34;10.00;99.90
2327;DHT22;1174;51.588;7.328;2023-04-07T02:29:02;10.10;99.90
2327;DHT22;1174;51.588;7.328;2023-04-07T02:31:29;10.10;99.90
2327;DHT22;1174;51.588;7.328;2023-04-07T02:33:56;10.10;99.90
2327;DHT22;1174;51.588;7.328;2023-04-07T02:36:23;10.10;99.90
2327;DHT22;1174;51.588;7.328;2023-04-07T02:38:52;10.10;99.90
2327;DHT22;1174;51.588;7.328;2023-04-07T02:41:21;10.10;99.90
2327;DHT22;1174;51.588;7.328;2023-04-07T02:43:47;10.10;99.90
2327;DHT22;1174;51.588;7.328;2023-04-07T02:46:14;10.00;99.90
2327;DHT22;1174;51.588;7.328;2023-04-07T02:48:41;10.10;99.90
2327;DHT22;1174;51.588;7.328;2023-04-07T02:51:10;10.20;99.90
2327;DHT22;1174;51.588;7.328;2023-04-07T02:53:37;10.20;99.90
2327;DHT22;1174;51.588;7.328;2023-04-07T02:56:05;10.20;99.90
2327;DHT22;1174;51.588;7.328;2023-04-07T02:58:32;10.20;99.90
2327;DHT22;1174;51.588;7.328;2023-04-07T03:01:03;10.20;99.90
2327;DHT22;1174;51.588;7.328;2023-04-07T03:03:30;10.20;99.90
2327;DHT22;1174;51.588;7.328;2023-04-07T03:05:57;10.30;99.90
2327;DHT22;1174;51.588;7.328;2023-04-07T03:08:24;10.20;99.90
2327;DHT22;1174;51.588;7.328;2023-04-07T03:10:51;10.10;99.90
2327;DHT22;1174;51.588;7.328;2023-04-07T03:13:21;10.10;99.90
2327;DHT22;1174;51.588;7.328;2023-04-07T03:15:49;10.20;99.90
2327;DHT22;1174;51.588;7.328;2023-04-07T03:18:25;10.20;99.90
2327;DHT22;1174;51.588;7.328;2023-04-07T03:20:52;10.30;99.90
2327;DHT22;1174;51.588;7.328;2023-04-07T03:23:22;10.20;99.90
2327;DHT22;1174;51.588;7.328;2023-04-07T03:25:53;10.20;99.90
2327;DHT22;1174;51.588;7.328;2023-04-07T03:28:22;10.20;99.90
2327;DHT22;1174;51.588;7.328;2023-04-07T03:30:49;10.10;99.90
2327;DHT22;1174;51.588;7.328;2023-04-07T03:33:16;10.20;99.90
2327;DHT22;1174;51.588;7.328;2023-04-07T03:35:43;10.20;99.90
2327;DHT22;1174;51.588;7.328;2023-04-07T03:38:10;10.20;99.90
2327;DHT22;1174;51.588;7.328;2023-04-07T03:40:38;10.20;99.90
2327;DHT22;1174;51.588;7.328;2023-04-07T03:43:05;10.20;99.90
2327;DHT22;1174;51.588;7.328;2023-04-07T03:45:38;10.20;99.90
2327;DHT22;1174;51.588;7.328;2023-04-07T03:48:06;10.20;99.90
2327;DHT22;1174;51.588;7.328;2023-04-07T03:50:35;10.30;99.90
2327;DHT22;1174;51.588;7.328;2023-04-07T03:53:02;10.30;99.90
2327;DHT22;1174;51.588;7.328;2023-04-07T03:55:29;10.20;99.90
2327;DHT22;1174;51.588;7.328;2023-04-07T03:57:57;10.20;99.90
2327;DHT22;1174;51.588;7.328;2023-04-07T04:00:24;10.20;99.90
2327;DHT22;1174;51.588;7.328;2023-04-07T04:02:53;10.20;99.90
2327;DHT22;1174;51.588;7.328;2023-04-07T04:05:20;10.30;99.90
2327;DHT22;1174;51.588;7.328;2023-04-07T04:07:47;10.30;99.90
2327;DHT22;1174;51.588;7.328;2023-04-07T04:10:15;10.30;99.90
2327;DHT22;1174;51.588;7.328;2023-04-07T04:12:43;10.30;99.90
2327;DHT22;1174;51.588;7.328;2023-04-07T04:15:10;10.20;99.90
2327;DHT22;1174;51.588;7.328;2023-04-07T04:17:38;10.10;99.90
2327;DHT22;1174;51.588;7.328;2023-04-07T04:20:08;10.10;99.90
2327;DHT22;1174;51.588;7.328;2023-04-07T04:22:35;10.10;99.90
2327;DHT22;1174;51.588;7.328;2023-04-07T04:25:03;10.20;99.90
2327;DHT22;1174;51.588;7.328;2023-04-07T04:27:31;10.30;99.90
2327;DHT22;1174;51.588;7.328;2023-04-07T04:29:58;10.20;99.90
2327;DHT22;1174;51.588;7.328;2023-04-07T04:32:25;10.20;99.90
2327;DHT22;1174;51.588;7.328;2023-04-07T04:34:52;10.30;99.90
2327;DHT22;1174;51.588;7.328;2023-04-07T04:37:20;10.20;99.90
2327;DHT22;1174;51.588;7.328;2023-04-07T04:39:47;10.20;99.90
2327;DHT22;1174;51.588;7.328;2023-04-07T04:42:14;10.20;99.90
2327;DHT22;1174;51.588;7.328;2023-04-07T04:44:44;10.10;99.90
2327;DHT22;1174;51.588;7.328;2023-04-07T04:47:13;10.00;99.90
2327;DHT22;1174;51.588;7.328;2023-04-07T04:49:43;10.00;99.90
2327;DHT22;1174;51.588;7.328;2023-04-07T04:52:13;10.00;99.90
2327;DHT22;1174;51.588;7.328;2023-04-07T04:54:41;10.00;99.90
2327;DHT22;1174;51.588;7.328;2023-04-07T04:57:09;10.00;99.90
2327;DHT22;1174;51.588;7.328;2023-04-07T04:59:40;10.00;99.90
2327;DHT22;1174;51.588;7.328;2023-04-07T05:02:09;10.00;99.90
2327;DHT22;1174;51.588;7.328;2023-04-07T05:04:38;10.10;99.90
2327;DHT22;1174;51.588;7.328;2023-04-07T05:07:05;10.00;99.90
2327;DHT22;1174;51.588;7.328;2023-04-07T05:09:32;10.10;99.90
2327;DHT22;1174;51.588;7.328;2023-04-07T05:12:11;10.00;99.90
2327;DHT22;1174;51.588;7.328;2023-04-07T05:14:38;10.10;99.90
2327;DHT22;1174;51.588;7.328;2023-04-07T05:17:06;10.00;99.90
2327;DHT22;1174;51.588;7.328;2023-04-07T05:19:42;9.90;99.90
2327;DHT22;1174;51.588;7.328;2023-04-07T05:22:09;9.80;99.90
2327;DHT22;1174;51.588;7.328;2023-04-07T05:24:36;9.80;99.90
2327;DHT22;1174;51.588;7.328;2023-04-07T05:27:07;9.80;99.90
2327;DHT22;1174;51.588;7.328;2023-04-07T05:29:35;9.80;99.90
2327;DHT22;1174;51.588;7.328;2023-04-07T05:32:03;9.80;99.90
2327;DHT22;1174;51.588;7.328;2023-04-07T05:34:31;9.80;99.90
2327;DHT22;1174;51.588;7.328;2023-04-07T05:36:58;9.80;99.90
2327;DHT22;1174;51.588;7.328;2023-04-07T05:39:25;9.80;99.90
2327;DHT22;1174;51.588;7.328;2023-04-07T05:41:52;9.80;99.90
2327;DHT22;1174;51.588;7.328;2023-04-07T05:44:21;9.80;99.90
2327;DHT22;1174;51.588;7.328;2023-04-07T05:46:48;9.60;99.90
2327;DHT22;1174;51.588;7.328;2023-04-07T05:49:15;9.60;99.90
2327;DHT22;1174;51.588;7.328;2023-04-07T05:51:43;9.60;99.90
2327;DHT22;1174;51.588;7.328;2023-04-07T05:54:10;9.70;99.90
2327;DHT22;1174;51.588;7.328;2023-04-07T05:56:37;9.70;99.90
2327;DHT22;1174;51.588;7.328;2023-04-07T05:59:05;9.70;99.90
2327;DHT22;1174;51.588;7.328;2023-04-07T06:01:34;9.70;99.90
2327;DHT22;1174;51.588;7.328;2023-04-07T06:04:00;9.70;99.90
2327;DHT22;1174;51.588;7.328;2023-04-07T06:06:28;9.70;99.90
2327;DHT22;1174;51.588;7.328;2023-04-07T06:08:56;9.70;99.90
2327;DHT22;1174;51.588;7.328;2023-04-07T06:11:23;9.80;99.90
2327;DHT22;1174;51.588;7.328;2023-04-07T06:13:50;9.80;99.90
2327;DHT22;1174;51.588;7.328;2023-04-07T06:16:18;9.80;99.90
2327;DHT22;1174;51.588;7.328;2023-04-07T06:18:46;9.80;99.90
2327;DHT22;1174;51.588;7.328;2023-04-07T06:21:13;9.80;99.90
2327;DHT22;1174;51.588;7.328;2023-04-07T06:23:41;9.70;99.90
2327;DHT22;1174;51.588;7.328;2023-04-07T06:26:09;9.70;99.90
2327;DHT22;1174;51.588;7.328;2023-04-07T06:28:37;9.60;99.90
2327;DHT22;1174;51.588;7.328;2023-04-07T06:31:04;9.70;99.90
2327;DHT22;1174;51.588;7.328;2023-04-07T06:33:32;9.60;99.90
2327;DHT22;1174;51.588;7.328;2023-04-07T06:36:00;9.60;99.90
2327;DHT22;1174;51.588;7.328;2023-04-07T06:38:27;9.80;99.90
2327;DHT22;1174;51.588;7.328;2023-04-07T06:40:55;9.80;99.90
2327;DHT22;1174;51.588;7.328;2023-04-07T06:43:22;9.90;99.90
2327;DHT22;1174;51.588;7.328;2023-04-07T06:45:49;9.90;99.90
2327;DHT22;1174;51.588;7.328;2023-04-07T06:48:30;9.90;99.90
2327;DHT22;1174;51.588;7.328;2023-04-07T06:50:59;10.00;99.90
2327;DHT22;1174;51.588;7.328;2023-04-07T06:53:26;10.10;99.90
2327;DHT22;1174;51.588;7.328;2023-04-07T06:56:02;10.10;99.90
2327;DHT22;1174;51.588;7.328;2023-04-07T06:58:30;10.10;99.90
2327;DHT22;1174;51.588;7.328;2023-04-07T07:00:57;10.10;99.90
2327;DHT22;1174;51.588;7.328;2023-04-07T07:03:24;10.10;99.90
2327;DHT22;1174;51.588;7.328;2023-04-07T07:05:56;10.20;99.90
2327;DHT22;1174;51.588;7.328;2023-04-07T07:08:25;10.20;99.90
2327;DHT22;1174;51.588;7.328;2023-04-07T07:10:52;10.00;99.90
2327;DHT22;1174;51.588;7.328;2023-04-07T07:13:22;9.90;99.90
2327;DHT22;1174;51.588;7.328;2023-04-07T07:15:49;9.90;99.90
2327;DHT22;1174;51.588;7.328;2023-04-07T07:18:16;10.10;99.90
2327;DHT22;1174;51.588;7.328;2023-04-07T07:20:44;10.10;99.90
2327;DHT22;1174;51.588;7.328;2023-04-07T07:23:12;10.20;99.90
2327;DHT22;1174;51.588;7.328;2023-04-07T07:25:40;10.10;99.90
2327;DHT22;1174;51.588;7.328;2023-04-07T07:28:07;10.00;99.90
2327;DHT22;1174;51.588;7.328;2023-04-07T07:30:35;10.00;99.90
2327;DHT22;1174;51.588;7.328;2023-04-07T07:33:02;10.10;99.90
2327;DHT22;1174;51.588;7.328;2023-04-07T07:35:33;10.10;99.90
2327;DHT22;1174;51.588;7.328;2023-04-07T07:38:02;10.10;99.90
2327;DHT22;1174;51.588;7.328;2023-04-07T07:40:29;10.20;99.90
2327;DHT22;1174;51.588;7.328;2023-04-07T07:42:58;10.40;99.90
2327;DHT22;1174;51.588;7.328;2023-04-07T07:45:26;10.40;99.90
2327;DHT22;1174;51.588;7.328;2023-04-07T07:47:53;10.40;99.90
2327;DHT22;1174;51.588;7.328;2023-04-07T07:50:20;10.40;99.90
2327;DHT22;1174;51.588;7.328;2023-04-07T07:52:47;10.40;99.90
2327;DHT22;1174;51.588;7.328;2023-04-07T07:55:17;10.30;99.90
2327;DHT22;1174;51.588;7.328;2023-04-07T07:57:44;10.40;99.90
2327;DHT22;1174;51.588;7.328;2023-04-07T08:00:13;10.30;99.90
2327;DHT22;1174;51.588;7.328;2023-04-07T08:02:42;10.40;99.90
2327;DHT22;1174;51.588;7.328;2023-04-07T08:05:09;10.50;99.90
2327;DHT22;1174;51.588;7.328;2023-04-07T08:07:36;10.50;99.90
2327;DHT22;1174;51.588;7.328;2023-04-07T08:10:03;10.50;99.90
2327;DHT22;1174;51.588;7.328;2023-04-07T08:12:31;10.60;99.90
2327;DHT22;1174;51.588;7.328;2023-04-07T08:14:58;10.70;99.90
2327;DHT22;1174;51.588;7.328;2023-04-07T08:17:26;10.90;99.90
2327;DHT22;1174;51.588;7.328;2023-04-07T08:19:53;10.90;99.90
2327;DHT22;1174;51.588;7.328;2023-04-07T08:22:21;10.90;99.90
2327;DHT22;1174;51.588;7.328;2023-04-07T08:24:48;10.80;99.90
2327;DHT22;1174;51.588;7.328;2023-04-07T08:27:15;10.80;99.90
2327;DHT22;1174;51.588;7.328;2023-04-07T08:29:42;10.80;99.90
2327;DHT22;1174;51.588;7.328;2023-04-07T08:32:09;10.60;99.90
2327;DHT22;1174;51.588;7.328;2023-04-07T08:34:44;10.50;99.90
2327;DHT22;1174;51.588;7.328;2023-04-07T08:37:12;10.60;99.90
2327;DHT22;1174;51.588;7.328;2023-04-07T08:39:38;10.60;99.90
2327;DHT22;1174;51.588;7.328;2023-04-07T08:42:10;10.70;99.90
2327;DHT22;1174;51.588;7.328;2023-04-07T08:44:41;10.70;99.90
2327;DHT22;1174;51.588;7.328;2023-04-07T08:47:12;10.80;99.90
2327;DHT22;1174;51.588;7.328;2023-04-07T08:49:59;10.90;99.90
2327;DHT22;1174;51.588;7.328;2023-04-07T08:52:33;10.90;99.90
2327;DHT22;1174;51.588;7.328;2023-04-07T08:55:03;11.00;99.90
2327;DHT22;1174;51.588;7.328;2023-04-07T08:57:32;11.00;99.90
2327;DHT22;1174;51.588;7.328;2023-04-07T09:00:01;11.10;99.90
2327;DHT22;1174;51.588;7.328;2023-04-07T09:02:31;11.10;99.90
2327;DHT22;1174;51.588;7.328;2023-04-07T09:05:01;11.20;99.90
2327;DHT22;1174;51.588;7.328;2023-04-07T09:07:33;11.20;99.90
2327;DHT22;1174;51.588;7.328;2023-04-07T09:10:00;11.20;99.90
2327;DHT22;1174;51.588;7.328;2023-04-07T09:12:28;11.20;99.90
2327;DHT22;1174;51.588;7.328;2023-04-07T09:14:55;11.10;99.90
2327;DHT22;1174;51.588;7.328;2023-04-07T09:17:25;11.10;99.90
2327;DHT22;1174;51.588;7.328;2023-04-07T09:19:55;11.00;99.90
2327;DHT22;1174;51.588;7.328;2023-04-07T09:22:40;11.00;99.90
2327;DHT22;1174;51.588;7.328;2023-04-07T09:25:15;11.10;99.90
2327;DHT22;1174;51.588;7.328;2023-04-07T09:27:54;11.20;99.90
2327;DHT22;1174;51.588;7.328;2023-04-07T09:30:22;11.10;99.90
2327;DHT22;1174;51.588;7.328;2023-04-07T09:32:49;11.10;99.90
2327;DHT22;1174;51.588;7.328;2023-04-07T09:35:17;11.10;99.90
2327;DHT22;1174;51.588;7.328;2023-04-07T09:38:00;10.90;99.90
2327;DHT22;1174;51.588;7.328;2023-04-07T09:40:28;10.70;99.90
2327;DHT22;1174;51.588;7.328;2023-04-07T09:42:58;10.80;99.90
2327;DHT22;1174;51.588;7.328;2023-04-07T09:45:25;10.90;99.90
2327;DHT22;1174;51.588;7.328;2023-04-07T09:47:53;10.90;99.90
2327;DHT22;1174;51.588;7.328;2023-04-07T09:50:31;10.90;99.90
2327;DHT22;1174;51.588;7.328;2023-04-07T09:53:01;10.90;99.90
2327;DHT22;1174;51.588;7.328;2023-04-07T09:55:29;10.90;99.90
2327;DHT22;1174;51.588;7.328;2023-04-07T09:57:59;11.00;99.90
2327;DHT22;1174;51.588;7.328;2023-04-07T10:00:32;11.10;99.90
2327;DHT22;1174;51.588;7.328;2023-04-07T10:03:04;11.10;99.90
2327;DHT22;1174;51.588;7.328;2023-04-07T10:05:34;11.20;99.90
2327;DHT22;1174;51.588;7.328;2023-04-07T10:08:08;11.00;99.90
2327;DHT22;1174;51.588;7.328;2023-04-07T10:10:35;10.90;99.90
2327;DHT22;1174;51.588;7.328;2023-04-07T10:13:03;10.70;99.90
2327;DHT22;1174;51.588;7.328;2023-04-07T10:15:33;10.80;99.90
2327;DHT22;1174;51.588;7.328;2023-04-07T10:18:05;10.80;99.90
2327;DHT22;1174;51.588;7.328;2023-04-07T10:20:33;10.80;99.90
2327;DHT22;1174;51.588;7.328;2023-04-07T10:23:07;10.90;99.90
2327;DHT22;1174;51.588;7.328;2023-04-07T10:25:35;11.00;99.90
2327;DHT22;1174;51.588;7.328;2023-04-07T10:28:05;10.90;99.90
2327;DHT22;1174;51.588;7.328;2023-04-07T10:30:33;10.70;99.90
2327;DHT22;1174;51.588;7.328;2023-04-07T10:33:01;10.60;99.90
2327;DHT22;1174;51.588;7.328;2023-04-07T10:35:28;10.60;99.90
2327;DHT22;1174;51.588;7.328;2023-04-07T10:38:17;10.50;99.90
2327;DHT22;1174;51.588;7.328;2023-04-07T10:40:44;10.40;99.90
2327;DHT22;1174;51.588;7.328;2023-04-07T10:43:11;10.30;99.90
2327;DHT22;1174;51.588;7.328;2023-04-07T10:45:55;10.60;99.90
2327;DHT22;1174;51.588;7.328;2023-04-07T10:48:24;10.50;99.90
2327;DHT22;1174;51.588;7.328;2023-04-07T10:51:15;10.60;99.90
2327;DHT22;1174;51.588;7.328;2023-04-07T10:57:09;10.70;99.90
2327;DHT22;1174;51.588;7.328;2023-04-07T10:59:41;10.50;99.90
2327;DHT22;1174;51.588;7.328;2023-04-07T11:02:36;10.70;99.90
2327;DHT22;1174;51.588;7.328;2023-04-07T11:05:04;10.80;99.90
2327;DHT22;1174;51.588;7.328;2023-04-07T11:07:46;10.70;99.90
2327;DHT22;1174;51.588;7.328;2023-04-07T11:10:15;10.90;99.90
2327;DHT22;1174;51.588;7.328;2023-04-07T11:13:00;11.00;99.90
2327;DHT22;1174;51.588;7.328;2023-04-07T11:15:28;11.10;99.90
2327;DHT22;1174;51.588;7.328;2023-04-07T11:18:13;11.10;99.90
2327;DHT22;1174;51.588;7.328;2023-04-07T11:20:47;11.10;99.90
2327;DHT22;1174;51.588;7.328;2023-04-07T11:23:16;11.00;99.90
2327;DHT22;1174;51.588;7.328;2023-04-07T11:25:45;10.90;99.90
2327;DHT22;1174;51.588;7.328;2023-04-07T11:28:14;11.10;99.90
2327;DHT22;1174;51.588;7.328;2023-04-07T11:30:48;10.90;99.90
2327;DHT22;1174;51.588;7.328;2023-04-07T11:33:19;11.00;99.90
2327;DHT22;1174;51.588;7.328;2023-04-07T11:35:52;11.00;99.90
2327;DHT22;1174;51.588;7.328;2023-04-07T11:38:21;11.10;99.90
2327;DHT22;1174;51.588;7.328;2023-04-07T11:40:48;11.10;99.90
2327;DHT22;1174;51.588;7.328;2023-04-07T11:43:18;11.30;99.90
2327;DHT22;1174;51.588;7.328;2023-04-07T11:45:46;11.40;99.90
2327;DHT22;1174;51.588;7.328;2023-04-07T11:48:30;11.50;99.90
2327;DHT22;1174;51.588;7.328;2023-04-07T11:50:58;11.60;99.90
2327;DHT22;1174;51.588;7.328;2023-04-07T11:53:27;11.50;99.90
2327;DHT22;1174;51.588;7.328;2023-04-07T11:55:59;11.60;99.90
2327;DHT22;1174;51.588;7.328;2023-04-07T11:58:28;11.70;99.90
2327;DHT22;1174;51.588;7.328;2023-04-07T12:00:56;11.50;99.90
2327;DHT22;1174;51.588;7.328;2023-04-07T12:03:23;11.20;99.90
2327;DHT22;1174;51.588;7.328;2023-04-07T12:05:52;11.00;99.90
2327;DHT22;1174;51.588;7.328;2023-04-07T12:08:38;11.10;99.90
2327;DHT22;1174;51.588;7.328;2023-04-07T12:11:05;11.10;99.90
2327;DHT22;1174;51.588;7.328;2023-04-07T12:13:35;11.10;99.90
2327;DHT22;1174;51.588;7.328;2023-04-07T12:16:02;11.10;99.90
2327;DHT22;1174;51.588;7.328;2023-04-07T12:18:30;11.10;99.90
2327;DHT22;1174;51.588;7.328;2023-04-07T12:20:58;11.20;99.90
2327;DHT22;1174;51.588;7.328;2023-04-07T12:23:25;11.20;99.90
2327;DHT22;1174;51.588;7.328;2023-04-07T12:25:52;11.10;99.90
2327;DHT22;1174;51.588;7.328;2023-04-07T12:28:19;11.20;99.90
2327;DHT22;1174;51.588;7.328;2023-04-07T12:30:50;11.10;99.90
2327;DHT22;1174;51.588;7.328;2023-04-07T12:33:17;11.20;99.90
2327;DHT22;1174;51.588;7.328;2023-04-07T12:35:44;11.10;99.90
2327;DHT22;1174;51.588;7.328;2023-04-07T12:38:12;11.20;99.90
2327;DHT22;1174;51.588;7.328;2023-04-07T12:40:40;11.20;99.90
2327;DHT22;1174;51.588;7.328;2023-04-07T12:43:07;11.20;99.90
2327;DHT22;1174;51.588;7.328;2023-04-07T12:45:35;11.30;99.90
2327;DHT22;1174;51.588;7.328;2023-04-07T12:48:03;11.40;99.90
2327;DHT22;1174;51.588;7.328;2023-04-07T12:50:31;11.20;99.90
2327;DHT22;1174;51.588;7.328;2023-04-07T12:52:58;11.00;99.90
2327;DHT22;1174;51.588;7.328;2023-04-07T12:55:30;11.20;99.90
2327;DHT22;1174;51.588;7.328;2023-04-07T12:57:58;11.30;99.90
2327;DHT22;1174;51.588;7.328;2023-04-07T13:00:25;11.20;99.90
2327;DHT22;1174;51.588;7.328;2023-04-07T13:02:52;11.20;99.90
2327;DHT22;1174;51.588;7.328;2023-04-07T13:05:20;11.10;99.90
2327;DHT22;1174;51.588;7.328;2023-04-07T13:07:48;11.20;99.90
2327;DHT22;1174;51.588;7.328;2023-04-07T13:10:15;11.40;99.90
2327;DHT22;1174;51.588;7.328;2023-04-07T13:12:42;11.30;99.90
2327;DHT22;1174;51.588;7.328;2023-04-07T13:15:09;11.40;99.90
2327;DHT22;1174;51.588;7.328;2023-04-07T13:17:38;11.50;99.90
2327;DHT22;1174;51.588;7.328;2023-04-07T13:20:06;11.50;99.90
2327;DHT22;1174;51.588;7.328;2023-04-07T13:22:34;11.50;99.90
2327;DHT22;1174;51.588;7.328;2023-04-07T13:25:02;11.50;99.90
2327;DHT22;1174;51.588;7.328;2023-04-07T13:27:29;11.60;99.90
2327;DHT22;1174;51.588;7.328;2023-04-07T13:29:56;11.60;99.90
2327;DHT22;1174;51.588;7.328;2023-04-07T13:32:23;11.60;99.90
2327;DHT22;1174;51.588;7.328;2023-04-07T13:34:51;11.60;99.90
2327;DHT22;1174;51.588;7.328;2023-04-07T13:37:18;11.60;99.90
2327;DHT22;1174;51.588;7.328;2023-04-07T13:39:47;11.50;99.90
2327;DHT22;1174;51.588;7.328;2023-04-07T13:42:14;11.60;99.90
2327;DHT22;1174;51.588;7.328;2023-04-07T13:44:43;11.70;99.90
2327;DHT22;1174;51.588;7.328;2023-04-07T13:47:13;11.60;99.90
2327;DHT22;1174;51.588;7.328;2023-04-07T13:49:45;11.50;99.90
2327;DHT22;1174;51.588;7.328;2023-04-07T13:52:15;11.40;99.90
2327;DHT22;1174;51.588;7.328;2023-04-07T13:54:44;11.30;99.90
2327;DHT22;1174;51.588;7.328;2023-04-07T13:57:12;11.40;99.90
2327;DHT22;1174;51.588;7.328;2023-04-07T13:59:45;11.60;99.90
2327;DHT22;1174;51.588;7.328;2023-04-07T14:02:12;11.60;99.90
2327;DHT22;1174;51.588;7.328;2023-04-07T14:04:41;11.80;99.90
2327;DHT22;1174;51.588;7.328;2023-04-07T14:07:08;11.80;99.90
2327;DHT22;1174;51.588;7.328;2023-04-07T14:09:35;11.70;99.90
2327;DHT22;1174;51.588;7.328;2023-04-07T14:12:02;11.80;99.90
2327;DHT22;1174;51.588;7.328;2023-04-07T14:14:31;11.90;99.90
2327;DHT22;1174;51.588;7.328;2023-04-07T14:16:58;11.60;99.90
2327;DHT22;1174;51.588;7.328;2023-04-07T14:19:25;11.50;99.90
2327;DHT22;1174;51.588;7.328;2023-04-07T14:21:53;11.50;99.90
2327;DHT22;1174;51.588;7.328;2023-04-07T14:24:22;11.30;99.90
2327;DHT22;1174;51.588;7.328;2023-04-07T14:26:49;11.20;99.90
2327;DHT22;1174;51.588;7.328;2023-04-07T14:29:19;11.40;99.90
2327;DHT22;1174;51.588;7.328;2023-04-07T14:31:47;11.20;99.90
2327;DHT22;1174;51.588;7.328;2023-04-07T14:34:16;11.30;99.90
2327;DHT22;1174;51.588;7.328;2023-04-07T14:36:52;11.40;99.90
2327;DHT22;1174;51.588;7.328;2023-04-07T14:39:20;11.40;99.90
2327;DHT22;1174;51.588;7.328;2023-04-07T14:41:48;11.20;99.90
2327;DHT22;1174;51.588;7.328;2023-04-07T14:44:16;11.30;99.90
2327;DHT22;1174;51.588;7.328;2023-04-07T14:46:43;11.30;99.90
2327;DHT22;1174;51.588;7.328;2023-04-07T14:49:12;11.20;99.90
2327;DHT22;1174;51.588;7.328;2023-04-07T14:51:40;11.30;99.90
2327;DHT22;1174;51.588;7.328;2023-04-07T14:54:07;11.30;99.90
2327;DHT22;1174;51.588;7.328;2023-04-07T14:56:35;11.30;99.90
2327;DHT22;1174;51.588;7.328;2023-04-07T14:59:02;11.20;99.90
2327;DHT22;1174;51.588;7.328;2023-04-07T15:01:30;11.10;99.90
2327;DHT22;1174;51.588;7.328;2023-04-07T15:03:57;11.10;99.90
2327;DHT22;1174;51.588;7.328;2023-04-07T15:06:29;11.20;99.90
2327;DHT22;1174;51.588;7.328;2023-04-07T15:08:59;11.30;99.90
2327;DHT22;1174;51.588;7.328;2023-04-07T15:11:26;11.40;99.90
2327;DHT22;1174;51.588;7.328;2023-04-07T15:13:53;11.40;99.90
2327;DHT22;1174;51.588;7.328;2023-04-07T15:16:21;11.50;99.90
2327;DHT22;1174;51.588;7.328;2023-04-07T15:18:48;11.50;99.90
2327;DHT22;1174;51.588;7.328;2023-04-07T15:21:15;11.50;99.90
2327;DHT22;1174;51.588;7.328;2023-04-07T15:23:45;11.50;99.90
2327;DHT22;1174;51.588;7.328;2023-04-07T15:26:13;11.50;99.90
2327;DHT22;1174;51.588;7.328;2023-04-07T15:28:40;11.50;99.90
2327;DHT22;1174;51.588;7.328;2023-04-07T15:31:07;11.60;99.90
2327;DHT22;1174;51.588;7.328;2023-04-07T15:33:34;11.60;99.90
2327;DHT22;1174;51.588;7.328;2023-04-07T15:36:02;11.70;99.90
2327;DHT22;1174;51.588;7.328;2023-04-07T15:38:29;11.70;99.90
2327;DHT22;1174;51.588;7.328;2023-04-07T15:40:58;11.70;99.90
2327;DHT22;1174;51.588;7.328;2023-04-07T15:43:30;11.80;99.90
2327;DHT22;1174;51.588;7.328;2023-04-07T15:45:59;11.90;99.90
2327;DHT22;1174;51.588;7.328;2023-04-07T15:48:26;11.90;99.90
2327;DHT22;1174;51.588;7.328;2023-04-07T15:50:53;11.90;99.90
2327;DHT22;1174;51.588;7.328;2023-04-07T15:53:22;11.90;99.90
2327;DHT22;1174;51.588;7.328;2023-04-07T15:55:50;11.90;99.90
2327;DHT22;1174;51.588;7.328;2023-04-07T15:58:19;12.10;99.90
2327;DHT22;1174;51.588;7.328;2023-04-07T16:00:46;12.20;99.90
2327;DHT22;1174;51.588;7.328;2023-04-07T16:03:13;12.20;99.90
2327;DHT22;1174;51.588;7.328;2023-04-07T16:05:40;12.10;99.90
2327;DHT22;1174;51.588;7.328;2023-04-07T16:08:08;12.00;99.90
2327;DHT22;1174;51.588;7.328;2023-04-07T16:10:35;11.80;99.90
2327;DHT22;1174;51.588;7.328;2023-04-07T16:13:02;11.70;99.90
2327;DHT22;1174;51.588;7.328;2023-04-07T16:15:31;11.80;99.90
2327;DHT22;1174;51.588;7.328;2023-04-07T16:17:58;11.80;99.90
2327;DHT22;1174;51.588;7.328;2023-04-07T16:20:25;11.90;99.90
2327;DHT22;1174;51.588;7.328;2023-04-07T16:22:54;11.80;99.90